sensor_id;sensor_type;location;lat;lon;timestamp;P1;durP1;ratioP1;P2;durP2;ratioP2
26951;SDS011;14507;52.418;13.398;2023-10-09T00:01:39;7.97;;;2.40;;
26951;SDS011;14507;52.418;13.398;2023-10-09T00:04:11;5.45;;;2.10;;
26951;SDS011;14507;52.418;13.398;2023-10-09T00:06:39;5.25;;;2.17;;
26951;SDS011;14507;52.418;13.398;2023-10-09T00:09:07;5.50;;;2.15;;
26951;SDS011;14507;52.418;13.398;2023-10-09T00:11:44;5.00;;;2.50;;
26951;SDS011;14507;52.418;13.398;2023-10-09T00:14:13;5.13;;;2.50;;
26951;SDS011;14507;52.418;13.398;2023-10-09T00:16:40;6.45;;;2.35;;
26951;SDS011;14507;52.418;13.398;2023-10-09T00:19:13;5.72;;;2.42;;
26951;SDS011;14507;52.418;13.398;2023-10-09T00:21:42;5.75;;;2.58;;
26951;SDS011;14507;52.418;13.398;2023-10-09T00:24:12;5.25;;;2.33;;
26951;SDS011;14507;52.418;13.398;2023-10-09T00:26:44;5.82;;;2.83;;
26951;SDS011;14507;52.418;13.398;2023-10-09T00:29:11;6.50;;;2.70;;
26951;SDS011;14507;52.418;13.398;2023-10-09T00:31:46;5.88;;;2.20;;
26951;SDS011;14507;52.418;13.398;2023-10-09T00:34:16;7.30;;;2.35;;
26951;SDS011;14507;52.418;13.398;2023-10-09T00:36:45;6.80;;;2.55;;
26951;SDS011;14507;52.418;13.398;2023-10-09T00:39:19;5.95;;;2.50;;
26951;SDS011;14507;52.418;13.398;2023-10-09T00:42:00;6.28;;;2.35;;
26951;SDS011;14507;52.418;13.398;2023-10-09T00:44:27;5.85;;;2.75;;
26951;SDS011;14507;52.418;13.398;2023-10-09T00:47:03;5.22;;;2.30;;
26951;SDS011;14507;52.418;13.398;2023-10-09T00:49:46;6.63;;;2.33;;
26951;SDS011;14507;52.418;13.398;2023-10-09T00:52:23;4.70;;;2.17;;
26951;SDS011;14507;52.418;13.398;2023-10-09T00:55:01;4.93;;;2.45;;
26951;SDS011;14507;52.418;13.398;2023-10-09T00:57:52;4.55;;;2.20;;
26951;SDS011;14507;52.418;13.398;2023-10-09T01:00:24;7.30;;;2.92;;
26951;SDS011;14507;52.418;13.398;2023-10-09T01:03:17;5.00;;;2.10;;
26951;SDS011;14507;52.418;13.398;2023-10-09T01:08:33;7.65;;;2.42;;
26951;SDS011;14507;52.418;13.398;2023-10-09T01:11:05;5.55;;;2.70;;
26951;SDS011;14507;52.418;13.398;2023-10-09T01:13:44;5.20;;;2.60;;
26951;SDS011;14507;52.418;13.398;2023-10-09T01:16:13;7.18;;;2.85;;
26951;SDS011;14507;52.418;13.398;2023-10-09T01:18:43;5.85;;;2.60;;
26951;SDS011;14507;52.418;13.398;2023-10-09T01:21:10;5.80;;;2.50;;
26951;SDS011;14507;52.418;13.398;2023-10-09T01:23:41;9.15;;;2.55;;
26951;SDS011;14507;52.418;13.398;2023-10-09T01:26:28;7.00;;;2.55;;
26951;SDS011;14507;52.418;13.398;2023-10-09T01:29:07;8.48;;;2.90;;
26951;SDS011;14507;52.418;13.398;2023-10-09T01:31:41;9.48;;;2.58;;
26951;SDS011;14507;52.418;13.398;2023-10-09T01:34:20;5.93;;;2.83;;
26951;SDS011;14507;52.418;13.398;2023-10-09T01:36:52;9.45;;;2.47;;
26951;SDS011;14507;52.418;13.398;2023-10-09T01:39:22;4.57;;;2.28;;
26951;SDS011;14507;52.418;13.398;2023-10-09T01:41:56;3.70;;;2.03;;
26951;SDS011;14507;52.418;13.398;2023-10-09T01:44:31;5.13;;;2.65;;
26951;SDS011;14507;52.418;13.398;2023-10-09T01:47:03;5.45;;;2.47;;
26951;SDS011;14507;52.418;13.398;2023-10-09T01:49:36;10.70;;;2.80;;
26951;SDS011;14507;52.418;13.398;2023-10-09T01:52:06;8.43;;;2.55;;
26951;SDS011;14507;52.418;13.398;2023-10-09T01:54:37;6.57;;;2.28;;
26951;SDS011;14507;52.418;13.398;2023-10-09T01:57:08;5.72;;;2.67;;
26951;SDS011;14507;52.418;13.398;2023-10-09T01:59:40;5.65;;;2.35;;
26951;SDS011;14507;52.418;13.398;2023-10-09T02:02:13;6.65;;;2.88;;
26951;SDS011;14507;52.418;13.398;2023-10-09T02:04:50;5.78;;;2.58;;
26951;SDS011;14507;52.418;13.398;2023-10-09T02:07:48;7.13;;;2.40;;
26951;SDS011;14507;52.418;13.398;2023-10-09T02:10:17;7.68;;;2.72;;
26951;SDS011;14507;52.418;13.398;2023-10-09T02:12:54;7.65;;;2.40;;
26951;SDS011;14507;52.418;13.398;2023-10-09T02:15:30;7.15;;;2.25;;
26951;SDS011;14507;52.418;13.398;2023-10-09T02:18:14;5.35;;;2.58;;
26951;SDS011;14507;52.418;13.398;2023-10-09T02:23:34;8.70;;;2.90;;
26951;SDS011;14507;52.418;13.398;2023-10-09T02:26:09;7.20;;;3.17;;
26951;SDS011;14507;52.418;13.398;2023-10-09T02:28:44;7.03;;;2.97;;
26951;SDS011;14507;52.418;13.398;2023-10-09T02:31:18;6.40;;;3.13;;
26951;SDS011;14507;52.418;13.398;2023-10-09T02:33:48;11.27;;;3.58;;
26951;SDS011;14507;52.418;13.398;2023-10-09T02:36:19;7.15;;;3.08;;
26951;SDS011;14507;52.418;13.398;2023-10-09T02:38:44;7.72;;;2.80;;
26951;SDS011;14507;52.418;13.398;2023-10-09T02:41:13;6.70;;;3.30;;
26951;SDS011;14507;52.418;13.398;2023-10-09T02:43:42;8.82;;;3.38;;
26951;SDS011;14507;52.418;13.398;2023-10-09T02:46:12;7.72;;;3.30;;
26951;SDS011;14507;52.418;13.398;2023-10-09T02:48:54;6.38;;;3.42;;
26951;SDS011;14507;52.418;13.398;2023-10-09T02:53:52;9.75;;;3.63;;
26951;SDS011;14507;52.418;13.398;2023-10-09T02:56:22;6.22;;;3.28;;
26951;SDS011;14507;52.418;13.398;2023-10-09T02:59:07;11.80;;;4.03;;
26951;SDS011;14507;52.418;13.398;2023-10-09T03:01:33;8.95;;;3.65;;
26951;SDS011;14507;52.418;13.398;2023-10-09T03:04:00;8.23;;;3.78;;
26951;SDS011;14507;52.418;13.398;2023-10-09T03:06:27;19.73;;;3.63;;
26951;SDS011;14507;52.418;13.398;2023-10-09T03:08:59;8.68;;;3.45;;
26951;SDS011;14507;52.418;13.398;2023-10-09T03:11:25;9.35;;;3.70;;
26951;SDS011;14507;52.418;13.398;2023-10-09T03:13:57;9.25;;;3.38;;
26951;SDS011;14507;52.418;13.398;2023-10-09T03:16:22;9.48;;;4.30;;
26951;SDS011;14507;52.418;13.398;2023-10-09T03:18:49;10.88;;;4.53;;
26951;SDS011;14507;52.418;13.398;2023-10-09T03:21:17;9.45;;;4.35;;
26951;SDS011;14507;52.418;13.398;2023-10-09T03:23:45;9.07;;;4.38;;
26951;SDS011;14507;52.418;13.398;2023-10-09T03:26:21;7.38;;;3.88;;
26951;SDS011;14507;52.418;13.398;2023-10-09T03:28:50;11.38;;;4.57;;
26951;SDS011;14507;52.418;13.398;2023-10-09T03:31:17;10.73;;;4.45;;
26951;SDS011;14507;52.418;13.398;2023-10-09T03:33:43;11.38;;;4.28;;
26951;SDS011;14507;52.418;13.398;2023-10-09T03:36:09;7.95;;;4.80;;
26951;SDS011;14507;52.418;13.398;2023-10-09T03:38:35;8.45;;;4.90;;
26951;SDS011;14507;52.418;13.398;2023-10-09T03:41:03;9.65;;;4.55;;
26951;SDS011;14507;52.418;13.398;2023-10-09T03:43:38;11.00;;;4.70;;
26951;SDS011;14507;52.418;13.398;2023-10-09T03:46:06;10.88;;;4.90;;
26951;SDS011;14507;52.418;13.398;2023-10-09T03:48:58;12.55;;;4.63;;
26951;SDS011;14507;52.418;13.398;2023-10-09T03:51:28;12.32;;;5.18;;
26951;SDS011;14507;52.418;13.398;2023-10-09T03:53:54;8.52;;;4.72;;
26951;SDS011;14507;52.418;13.398;2023-10-09T03:56:20;13.85;;;4.85;;
26951;SDS011;14507;52.418;13.398;2023-10-09T03:58:49;10.70;;;5.07;;
26951;SDS011;14507;52.418;13.398;2023-10-09T04:01:16;9.95;;;4.93;;
26951;SDS011;14507;52.418;13.398;2023-10-09T04:03:57;11.27;;;5.25;;
26951;SDS011;14507;52.418;13.398;2023-10-09T04:06:28;10.15;;;4.88;;
26951;SDS011;14507;52.418;13.398;2023-10-09T04:09:00;12.38;;;5.10;;
26951;SDS011;14507;52.418;13.398;2023-10-09T04:11:53;13.77;;;5.50;;
26951;SDS011;14507;52.418;13.398;2023-10-09T04:14:35;14.10;;;5.43;;
26951;SDS011;14507;52.418;13.398;2023-10-09T04:17:01;11.80;;;5.22;;
26951;SDS011;14507;52.418;13.398;2023-10-09T04:19:45;11.85;;;5.70;;
26951;SDS011;14507;52.418;13.398;2023-10-09T04:22:34;9.30;;;4.53;;
26951;SDS011;14507;52.418;13.398;2023-10-09T04:25:04;12.13;;;5.53;;
26951;SDS011;14507;52.418;13.398;2023-10-09T04:27:43;12.07;;;5.68;;
26951;SDS011;14507;52.418;13.398;2023-10-09T04:30:10;10.40;;;5.53;;
26951;SDS011;14507;52.418;13.398;2023-10-09T04:32:41;13.40;;;5.70;;
26951;SDS011;14507;52.418;13.398;2023-10-09T04:35:09;11.52;;;5.43;;
26951;SDS011;14507;52.418;13.398;2023-10-09T04:37:47;8.38;;;4.82;;
26951;SDS011;14507;52.418;13.398;2023-10-09T04:40:17;7.60;;;4.50;;
26951;SDS011;14507;52.418;13.398;2023-10-09T04:43:02;10.77;;;5.00;;
26951;SDS011;14507;52.418;13.398;2023-10-09T04:45:32;10.13;;;5.25;;
26951;SDS011;14507;52.418;13.398;2023-10-09T04:48:24;9.38;;;4.80;;
26951;SDS011;14507;52.418;13.398;2023-10-09T04:51:01;10.40;;;5.22;;
26951;SDS011;14507;52.418;13.398;2023-10-09T04:53:45;10.80;;;5.07;;
26951;SDS011;14507;52.418;13.398;2023-10-09T04:56:34;10.68;;;5.38;;
26951;SDS011;14507;52.418;13.398;2023-10-09T04:59:16;13.15;;;5.53;;
26951;SDS011;14507;52.418;13.398;2023-10-09T05:01:50;9.90;;;4.97;;
26951;SDS011;14507;52.418;13.398;2023-10-09T05:04:23;12.02;;;5.57;;
26951;SDS011;14507;52.418;13.398;2023-10-09T05:07:01;9.48;;;5.20;;
26951;SDS011;14507;52.418;13.398;2023-10-09T05:09:47;9.95;;;5.40;;
26951;SDS011;14507;52.418;13.398;2023-10-09T05:12:31;11.25;;;5.75;;
26951;SDS011;14507;52.418;13.398;2023-10-09T05:14:57;14.05;;;5.60;;
26951;SDS011;14507;52.418;13.398;2023-10-09T05:17:35;8.93;;;4.88;;
26951;SDS011;14507;52.418;13.398;2023-10-09T05:20:04;12.85;;;6.15;;
26951;SDS011;14507;52.418;13.398;2023-10-09T05:22:49;13.20;;;5.88;;
26951;SDS011;14507;52.418;13.398;2023-10-09T05:25:25;14.05;;;6.28;;
26951;SDS011;14507;52.418;13.398;2023-10-09T05:28:10;11.70;;;5.78;;
26951;SDS011;14507;52.418;13.398;2023-10-09T05:30:55;11.77;;;6.03;;
26951;SDS011;14507;52.418;13.398;2023-10-09T05:33:31;12.23;;;5.47;;
26951;SDS011;14507;52.418;13.398;2023-10-09T05:35:59;11.18;;;5.82;;
26951;SDS011;14507;52.418;13.398;2023-10-09T05:38:46;13.20;;;5.85;;
26951;SDS011;14507;52.418;13.398;2023-10-09T05:41:23;9.77;;;4.77;;
26951;SDS011;14507;52.418;13.398;2023-10-09T05:44:08;10.38;;;5.00;;
26951;SDS011;14507;52.418;13.398;2023-10-09T05:46:52;13.57;;;5.43;;
26951;SDS011;14507;52.418;13.398;2023-10-09T05:49:36;9.88;;;5.00;;
26951;SDS011;14507;52.418;13.398;2023-10-09T05:52:11;13.18;;;4.55;;
26951;SDS011;14507;52.418;13.398;2023-10-09T05:54:57;9.35;;;4.00;;
26951;SDS011;14507;52.418;13.398;2023-10-09T05:57:41;9.35;;;4.45;;
26951;SDS011;14507;52.418;13.398;2023-10-09T06:00:25;10.00;;;4.25;;
26951;SDS011;14507;52.418;13.398;2023-10-09T06:03:10;10.35;;;4.65;;
26951;SDS011;14507;52.418;13.398;2023-10-09T06:05:48;8.88;;;4.43;;
26951;SDS011;14507;52.418;13.398;2023-10-09T06:08:19;8.07;;;4.32;;
26951;SDS011;14507;52.418;13.398;2023-10-09T06:11:04;7.68;;;4.47;;
26951;SDS011;14507;52.418;13.398;2023-10-09T06:13:56;10.25;;;4.43;;
26951;SDS011;14507;52.418;13.398;2023-10-09T06:16:35;9.18;;;4.00;;
26951;SDS011;14507;52.418;13.398;2023-10-09T06:19:09;7.47;;;4.22;;
26951;SDS011;14507;52.418;13.398;2023-10-09T06:21:45;7.55;;;4.57;;
26951;SDS011;14507;52.418;13.398;2023-10-09T06:24:20;12.00;;;4.75;;
26951;SDS011;14507;52.418;13.398;2023-10-09T06:26:49;12.38;;;5.40;;
26951;SDS011;14507;52.418;13.398;2023-10-09T06:29:27;10.43;;;4.65;;
26951;SDS011;14507;52.418;13.398;2023-10-09T06:32:15;7.70;;;4.25;;
26951;SDS011;14507;52.418;13.398;2023-10-09T06:34:48;14.15;;;5.03;;
26951;SDS011;14507;52.418;13.398;2023-10-09T06:37:18;8.52;;;4.90;;
26951;SDS011;14507;52.418;13.398;2023-10-09T06:39:44;7.82;;;4.43;;
26951;SDS011;14507;52.418;13.398;2023-10-09T06:42:15;10.02;;;4.38;;
26951;SDS011;14507;52.418;13.398;2023-10-09T06:47:46;8.65;;;3.97;;
26951;SDS011;14507;52.418;13.398;2023-10-09T06:50:34;8.55;;;4.35;;
26951;SDS011;14507;52.418;13.398;2023-10-09T06:53:19;7.82;;;4.32;;
26951;SDS011;14507;52.418;13.398;2023-10-09T06:55:45;7.65;;;4.40;;
26951;SDS011;14507;52.418;13.398;2023-10-09T06:58:18;11.45;;;4.45;;
26951;SDS011;14507;52.418;13.398;2023-10-09T07:00:50;11.20;;;5.45;;
26951;SDS011;14507;52.418;13.398;2023-10-09T07:03:26;10.48;;;5.32;;
26951;SDS011;14507;52.418;13.398;2023-10-09T07:08:54;10.48;;;5.43;;
26951;SDS011;14507;52.418;13.398;2023-10-09T07:11:48;9.00;;;5.35;;
26951;SDS011;14507;52.418;13.398;2023-10-09T07:17:04;10.52;;;5.03;;
26951;SDS011;14507;52.418;13.398;2023-10-09T07:19:51;7.93;;;4.35;;
26951;SDS011;14507;52.418;13.398;2023-10-09T07:22:20;8.35;;;4.07;;
26951;SDS011;14507;52.418;13.398;2023-10-09T07:24:54;9.30;;;4.43;;
26951;SDS011;14507;52.418;13.398;2023-10-09T07:27:38;9.25;;;4.38;;
26951;SDS011;14507;52.418;13.398;2023-10-09T07:33:08;9.80;;;4.07;;
26951;SDS011;14507;52.418;13.398;2023-10-09T07:35:37;8.95;;;4.45;;
26951;SDS011;14507;52.418;13.398;2023-10-09T07:40:45;9.85;;;4.53;;
26951;SDS011;14507;52.418;13.398;2023-10-09T07:43:32;9.13;;;4.13;;
26951;SDS011;14507;52.418;13.398;2023-10-09T07:46:11;8.45;;;4.05;;
26951;SDS011;14507;52.418;13.398;2023-10-09T07:48:57;5.85;;;3.78;;
26951;SDS011;14507;52.418;13.398;2023-10-09T07:51:37;7.95;;;4.65;;
26951;SDS011;14507;52.418;13.398;2023-10-09T07:54:08;12.65;;;4.80;;
26951;SDS011;14507;52.418;13.398;2023-10-09T07:56:34;9.00;;;4.38;;
26951;SDS011;14507;52.418;13.398;2023-10-09T07:59:27;9.75;;;4.93;;
26951;SDS011;14507;52.418;13.398;2023-10-09T08:04:27;9.52;;;4.47;;
26951;SDS011;14507;52.418;13.398;2023-10-09T08:07:13;8.63;;;3.72;;
26951;SDS011;14507;52.418;13.398;2023-10-09T08:09:54;7.13;;;4.00;;
26951;SDS011;14507;52.418;13.398;2023-10-09T08:12:59;8.77;;;4.20;;
26951;SDS011;14507;52.418;13.398;2023-10-09T08:15:46;9.45;;;4.45;;
26951;SDS011;14507;52.418;13.398;2023-10-09T08:18:17;10.05;;;4.20;;
26951;SDS011;14507;52.418;13.398;2023-10-09T08:20:56;9.13;;;4.85;;
26951;SDS011;14507;52.418;13.398;2023-10-09T08:23:22;10.05;;;4.00;;
26951;SDS011;14507;52.418;13.398;2023-10-09T08:26:12;10.43;;;3.97;;
26951;SDS011;14507;52.418;13.398;2023-10-09T08:28:38;8.52;;;4.50;;
26951;SDS011;14507;52.418;13.398;2023-10-09T08:31:07;7.20;;;3.97;;
26951;SDS011;14507;52.418;13.398;2023-10-09T08:33:44;9.60;;;4.30;;
26951;SDS011;14507;52.418;13.398;2023-10-09T08:36:25;10.57;;;4.60;;
26951;SDS011;14507;52.418;13.398;2023-10-09T08:39:01;8.30;;;4.10;;
26951;SDS011;14507;52.418;13.398;2023-10-09T08:41:42;8.88;;;4.03;;
26951;SDS011;14507;52.418;13.398;2023-10-09T08:44:10;7.72;;;4.13;;
26951;SDS011;14507;52.418;13.398;2023-10-09T08:46:40;7.75;;;3.58;;
26951;SDS011;14507;52.418;13.398;2023-10-09T08:49:07;8.70;;;3.83;;
26951;SDS011;14507;52.418;13.398;2023-10-09T08:51:35;7.97;;;4.28;;
26951;SDS011;14507;52.418;13.398;2023-10-09T08:54:11;7.72;;;3.55;;
26951;SDS011;14507;52.418;13.398;2023-10-09T08:56:39;8.52;;;4.50;;
26951;SDS011;14507;52.418;13.398;2023-10-09T08:59:14;7.00;;;3.97;;
26951;SDS011;14507;52.418;13.398;2023-10-09T09:01:43;8.45;;;4.47;;
26951;SDS011;14507;52.418;13.398;2023-10-09T09:07:06;11.65;;;4.57;;
26951;SDS011;14507;52.418;13.398;2023-10-09T09:10:00;9.82;;;4.30;;
26951;SDS011;14507;52.418;13.398;2023-10-09T09:12:47;8.63;;;4.47;;
26951;SDS011;14507;52.418;13.398;2023-10-09T09:15:25;10.30;;;4.57;;
26951;SDS011;14507;52.418;13.398;2023-10-09T09:17:52;11.17;;;4.43;;
26951;SDS011;14507;52.418;13.398;2023-10-09T09:20:32;8.80;;;4.97;;
26951;SDS011;14507;52.418;13.398;2023-10-09T09:23:10;10.95;;;4.45;;
26951;SDS011;14507;52.418;13.398;2023-10-09T09:25:47;9.05;;;4.28;;
26951;SDS011;14507;52.418;13.398;2023-10-09T09:28:22;7.97;;;4.45;;
26951;SDS011;14507;52.418;13.398;2023-10-09T09:30:48;9.38;;;4.85;;
26951;SDS011;14507;52.418;13.398;2023-10-09T09:33:17;12.13;;;5.47;;
26951;SDS011;14507;52.418;13.398;2023-10-09T09:36:05;10.30;;;4.65;;
26951;SDS011;14507;52.418;13.398;2023-10-09T09:38:33;8.40;;;4.60;;
26951;SDS011;14507;52.418;13.398;2023-10-09T09:41:15;9.63;;;4.63;;
26951;SDS011;14507;52.418;13.398;2023-10-09T09:43:54;9.10;;;5.03;;
26951;SDS011;14507;52.418;13.398;2023-10-09T09:46:34;8.07;;;5.70;;
26951;SDS011;14507;52.418;13.398;2023-10-09T09:49:00;10.88;;;5.97;;
26951;SDS011;14507;52.418;13.398;2023-10-09T09:51:31;9.60;;;5.68;;
26951;SDS011;14507;52.418;13.398;2023-10-09T09:53:57;11.70;;;6.35;;
26951;SDS011;14507;52.418;13.398;2023-10-09T09:56:26;8.02;;;5.35;;
26951;SDS011;14507;52.418;13.398;2023-10-09T09:58:57;10.73;;;5.78;;
26951;SDS011;14507;52.418;13.398;2023-10-09T10:01:28;9.00;;;6.25;;
26951;SDS011;14507;52.418;13.398;2023-10-09T10:04:07;10.63;;;5.80;;
26951;SDS011;14507;52.418;13.398;2023-10-09T10:06:37;9.32;;;5.68;;
26951;SDS011;14507;52.418;13.398;2023-10-09T10:09:06;11.93;;;5.97;;
26951;SDS011;14507;52.418;13.398;2023-10-09T10:14:10;13.32;;;6.15;;
26951;SDS011;14507;52.418;13.398;2023-10-09T10:17:06;9.40;;;6.10;;
26951;SDS011;14507;52.418;13.398;2023-10-09T10:22:46;11.80;;;6.45;;
26951;SDS011;14507;52.418;13.398;2023-10-09T10:28:39;10.13;;;5.35;;
26951;SDS011;14507;52.418;13.398;2023-10-09T10:31:07;11.57;;;5.90;;
26951;SDS011;14507;52.418;13.398;2023-10-09T10:36:19;10.52;;;6.45;;
26951;SDS011;14507;52.418;13.398;2023-10-09T10:41:29;10.43;;;5.68;;
26951;SDS011;14507;52.418;13.398;2023-10-09T10:44:01;12.77;;;6.93;;
26951;SDS011;14507;52.418;13.398;2023-10-09T10:46:47;11.18;;;5.68;;
26951;SDS011;14507;52.418;13.398;2023-10-09T10:49:18;10.75;;;6.07;;
26951;SDS011;14507;52.418;13.398;2023-10-09T10:51:49;18.30;;;6.80;;
26951;SDS011;14507;52.418;13.398;2023-10-09T10:54:24;9.65;;;5.85;;
26951;SDS011;14507;52.418;13.398;2023-10-09T10:57:18;8.95;;;5.90;;
26951;SDS011;14507;52.418;13.398;2023-10-09T11:00:16;13.60;;;7.22;;
26951;SDS011;14507;52.418;13.398;2023-10-09T11:03:07;11.05;;;6.75;;
26951;SDS011;14507;52.418;13.398;2023-10-09T11:05:42;11.88;;;6.63;;
26951;SDS011;14507;52.418;13.398;2023-10-09T11:08:11;12.00;;;6.35;;
26951;SDS011;14507;52.418;13.398;2023-10-09T11:10:37;13.35;;;5.78;;
26951;SDS011;14507;52.418;13.398;2023-10-09T11:15:58;13.40;;;6.30;;
26951;SDS011;14507;52.418;13.398;2023-10-09T11:19:02;14.10;;;5.50;;
26951;SDS011;14507;52.418;13.398;2023-10-09T11:21:38;10.98;;;6.20;;
26951;SDS011;14507;52.418;13.398;2023-10-09T11:24:08;11.57;;;6.25;;
26951;SDS011;14507;52.418;13.398;2023-10-09T11:26:49;11.52;;;6.63;;
26951;SDS011;14507;52.418;13.398;2023-10-09T11:29:25;13.38;;;6.47;;
26951;SDS011;14507;52.418;13.398;2023-10-09T11:32:09;15.65;;;6.57;;
26951;SDS011;14507;52.418;13.398;2023-10-09T11:34:43;12.32;;;6.32;;
26951;SDS011;14507;52.418;13.398;2023-10-09T11:37:17;11.15;;;6.32;;
26951;SDS011;14507;52.418;13.398;2023-10-09T11:39:58;13.10;;;6.97;;
26951;SDS011;14507;52.418;13.398;2023-10-09T11:42:28;12.63;;;6.40;;
26951;SDS011;14507;52.418;13.398;2023-10-09T11:45:03;11.02;;;7.18;;
26951;SDS011;14507;52.418;13.398;2023-10-09T11:47:54;15.07;;;6.88;;
26951;SDS011;14507;52.418;13.398;2023-10-09T11:50:46;11.98;;;7.13;;
26951;SDS011;14507;52.418;13.398;2023-10-09T11:53:42;13.30;;;7.18;;
26951;SDS011;14507;52.418;13.398;2023-10-09T11:56:10;10.20;;;6.82;;
26951;SDS011;14507;52.418;13.398;2023-10-09T11:58:42;12.02;;;6.75;;
26951;SDS011;14507;52.418;13.398;2023-10-09T12:01:14;10.70;;;6.88;;
26951;SDS011;14507;52.418;13.398;2023-10-09T12:03:42;12.85;;;6.50;;
26951;SDS011;14507;52.418;13.398;2023-10-09T12:06:14;12.02;;;6.97;;
26951;SDS011;14507;52.418;13.398;2023-10-09T12:08:44;9.88;;;6.60;;
26951;SDS011;14507;52.418;13.398;2023-10-09T12:11:12;13.20;;;7.13;;
26951;SDS011;14507;52.418;13.398;2023-10-09T12:13:39;9.85;;;6.45;;
26951;SDS011;14507;52.418;13.398;2023-10-09T12:16:07;17.17;;;8.02;;
26951;SDS011;14507;52.418;13.398;2023-10-09T12:18:36;13.43;;;7.88;;
26951;SDS011;14507;52.418;13.398;2023-10-09T12:21:04;15.65;;;7.85;;
26951;SDS011;14507;52.418;13.398;2023-10-09T12:23:31;13.60;;;7.85;;
26951;SDS011;14507;52.418;13.398;2023-10-09T12:26:01;16.08;;;8.85;;
26951;SDS011;14507;52.418;13.398;2023-10-09T12:28:27;16.02;;;7.90;;
26951;SDS011;14507;52.418;13.398;2023-10-09T12:30:53;18.52;;;8.07;;
26951;SDS011;14507;52.418;13.398;2023-10-09T12:33:19;12.10;;;8.18;;
26951;SDS011;14507;52.418;13.398;2023-10-09T12:35:53;13.27;;;7.75;;
26951;SDS011;14507;52.418;13.398;2023-10-09T12:38:25;11.98;;;8.13;;
26951;SDS011;14507;52.418;13.398;2023-10-09T12:41:06;14.18;;;8.60;;
26951;SDS011;14507;52.418;13.398;2023-10-09T12:43:50;13.43;;;9.02;;
26951;SDS011;14507;52.418;13.398;2023-10-09T12:46:17;16.23;;;10.15;;
26951;SDS011;14507;52.418;13.398;2023-10-09T12:48:47;12.30;;;8.15;;
26951;SDS011;14507;52.418;13.398;2023-10-09T12:51:14;12.13;;;7.75;;
26951;SDS011;14507;52.418;13.398;2023-10-09T12:53:43;13.10;;;7.68;;
26951;SDS011;14507;52.418;13.398;2023-10-09T12:56:10;14.13;;;8.65;;
26951;SDS011;14507;52.418;13.398;2023-10-09T12:58:37;12.10;;;8.65;;
26951;SDS011;14507;52.418;13.398;2023-10-09T13:01:03;11.73;;;8.60;;
26951;SDS011;14507;52.418;13.398;2023-10-09T13:03:36;14.95;;;7.28;;
26951;SDS011;14507;52.418;13.398;2023-10-09T13:06:03;10.13;;;7.22;;
26951;SDS011;14507;52.418;13.398;2023-10-09T13:08:32;11.82;;;6.80;;
26951;SDS011;14507;52.418;13.398;2023-10-09T13:11:07;11.52;;;7.68;;
26951;SDS011;14507;52.418;13.398;2023-10-09T13:13:37;10.35;;;7.47;;
26951;SDS011;14507;52.418;13.398;2023-10-09T13:16:15;12.88;;;8.27;;
26951;SDS011;14507;52.418;13.398;2023-10-09T13:18:51;14.27;;;8.80;;
26951;SDS011;14507;52.418;13.398;2023-10-09T13:21:19;12.98;;;7.97;;
26951;SDS011;14507;52.418;13.398;2023-10-09T13:23:45;13.18;;;9.10;;
26951;SDS011;14507;52.418;13.398;2023-10-09T13:26:19;13.88;;;8.80;;
26951;SDS011;14507;52.418;13.398;2023-10-09T13:28:51;12.65;;;8.82;;
26951;SDS011;14507;52.418;13.398;2023-10-09T13:31:18;13.98;;;9.45;;
26951;SDS011;14507;52.418;13.398;2023-10-09T13:33:51;16.40;;;9.63;;
26951;SDS011;14507;52.418;13.398;2023-10-09T13:36:20;14.45;;;9.10;;
26951;SDS011;14507;52.418;13.398;2023-10-09T13:38:56;14.05;;;8.73;;
26951;SDS011;14507;52.418;13.398;2023-10-09T13:41:43;13.93;;;9.30;;
26951;SDS011;14507;52.418;13.398;2023-10-09T13:44:09;14.23;;;9.93;;
26951;SDS011;14507;52.418;13.398;2023-10-09T13:46:34;15.10;;;9.27;;
26951;SDS011;14507;52.418;13.398;2023-10-09T13:49:06;14.77;;;9.20;;
26951;SDS011;14507;52.418;13.398;2023-10-09T13:51:39;11.75;;;8.25;;
26951;SDS011;14507;52.418;13.398;2023-10-09T13:54:13;13.70;;;8.73;;
26951;SDS011;14507;52.418;13.398;2023-10-09T13:56:46;14.00;;;8.38;;
26951;SDS011;14507;52.418;13.398;2023-10-09T13:59:12;14.18;;;8.80;;
26951;SDS011;14507;52.418;13.398;2023-10-09T14:01:38;15.20;;;8.65;;
26951;SDS011;14507;52.418;13.398;2023-10-09T14:04:05;12.68;;;8.60;;
26951;SDS011;14507;52.418;13.398;2023-10-09T14:06:33;13.90;;;7.85;;
26951;SDS011;14507;52.418;13.398;2023-10-09T14:09:00;13.70;;;7.93;;
26951;SDS011;14507;52.418;13.398;2023-10-09T14:11:29;12.65;;;8.02;;
26951;SDS011;14507;52.418;13.398;2023-10-09T14:14:02;12.70;;;7.35;;
26951;SDS011;14507;52.418;13.398;2023-10-09T14:16:29;12.82;;;8.48;;
26951;SDS011;14507;52.418;13.398;2023-10-09T14:18:58;10.93;;;7.47;;
26951;SDS011;14507;52.418;13.398;2023-10-09T14:21:25;12.65;;;7.03;;
26951;SDS011;14507;52.418;13.398;2023-10-09T14:23:55;10.43;;;7.43;;
26951;SDS011;14507;52.418;13.398;2023-10-09T14:26:28;13.10;;;7.70;;
26951;SDS011;14507;52.418;13.398;2023-10-09T14:28:54;12.95;;;7.57;;
26951;SDS011;14507;52.418;13.398;2023-10-09T14:31:24;11.70;;;7.32;;
26951;SDS011;14507;52.418;13.398;2023-10-09T14:33:54;11.48;;;6.78;;
26951;SDS011;14507;52.418;13.398;2023-10-09T14:36:20;13.93;;;7.32;;
26951;SDS011;14507;52.418;13.398;2023-10-09T14:38:51;13.40;;;7.20;;
26951;SDS011;14507;52.418;13.398;2023-10-09T14:41:21;14.07;;;7.50;;
26951;SDS011;14507;52.418;13.398;2023-10-09T14:43:51;12.80;;;7.32;;
26951;SDS011;14507;52.418;13.398;2023-10-09T14:46:18;11.48;;;6.60;;
26951;SDS011;14507;52.418;13.398;2023-10-09T14:48:54;12.05;;;7.40;;
26951;SDS011;14507;52.418;13.398;2023-10-09T14:51:23;11.02;;;6.93;;
26951;SDS011;14507;52.418;13.398;2023-10-09T14:54:00;12.52;;;6.72;;
26951;SDS011;14507;52.418;13.398;2023-10-09T14:56:28;14.00;;;7.30;;
26951;SDS011;14507;52.418;13.398;2023-10-09T14:58:57;13.57;;;7.60;;
26951;SDS011;14507;52.418;13.398;2023-10-09T15:01:25;10.48;;;6.88;;
26951;SDS011;14507;52.418;13.398;2023-10-09T15:03:53;16.05;;;9.00;;
26951;SDS011;14507;52.418;13.398;2023-10-09T15:06:28;14.40;;;8.15;;
26951;SDS011;14507;52.418;13.398;2023-10-09T15:08:55;14.32;;;8.45;;
26951;SDS011;14507;52.418;13.398;2023-10-09T15:11:25;15.68;;;8.40;;
26951;SDS011;14507;52.418;13.398;2023-10-09T15:13:53;15.23;;;8.32;;
26951;SDS011;14507;52.418;13.398;2023-10-09T15:16:21;11.93;;;8.07;;
26951;SDS011;14507;52.418;13.398;2023-10-09T15:18:48;12.57;;;7.07;;
26951;SDS011;14507;52.418;13.398;2023-10-09T15:21:18;16.83;;;8.35;;
26951;SDS011;14507;52.418;13.398;2023-10-09T15:23:47;9.75;;;6.47;;
26951;SDS011;14507;52.418;13.398;2023-10-09T15:28:42;13.82;;;7.35;;
26951;SDS011;14507;52.418;13.398;2023-10-09T15:31:07;10.52;;;7.10;;
26951;SDS011;14507;52.418;13.398;2023-10-09T15:33:36;10.13;;;6.57;;
26951;SDS011;14507;52.418;13.398;2023-10-09T15:36:14;11.20;;;6.95;;
26951;SDS011;14507;52.418;13.398;2023-10-09T15:38:42;9.70;;;6.90;;
26951;SDS011;14507;52.418;13.398;2023-10-09T15:41:08;11.75;;;7.28;;
26951;SDS011;14507;52.418;13.398;2023-10-09T15:43:34;14.10;;;7.03;;
26951;SDS011;14507;52.418;13.398;2023-10-09T15:46:00;16.52;;;7.55;;
26951;SDS011;14507;52.418;13.398;2023-10-09T15:48:26;11.52;;;7.10;;
26951;SDS011;14507;52.418;13.398;2023-10-09T15:50:57;10.32;;;6.85;;
26951;SDS011;14507;52.418;13.398;2023-10-09T15:53:23;12.48;;;7.70;;
26951;SDS011;14507;52.418;13.398;2023-10-09T15:55:49;13.95;;;7.85;;